Hauptseite
METAR-TAF:

METAR-TAF

Flughäfen :

Flughafen Sitten

Sion, Schweiz

Breite: 46-13N, Länge: 007-20E, Höhe: 482 m

Beobachtung

Neuester Wetterbericht von vor 23 Minuten, um 20:20 UTC
Wind 3 kt aus Ost
Temperatur -1°C
Luftfeuchtigkeit 59%
Luftdruck 1019 hPa
Sichtweite 10 km oder mehr
Leicht bewölkt in der Höhe von 9000 ft

METAR: LSGS 152020Z AUTO 09003KT 9999 FEW090 M01/M08 Q1019

Zeit: 21:43 (20:43 UTC)

Prognose

Neuester Wetterbericht von vor 6 Stunden und 18 Minuten, um 14:25 UTC
Gültige Prognose vom 15 um 15 UTC bis 15 um 24 UTC
Wind 5 kt aus West/Südwest
Sichtweite 10 km oder mehr
keine Wolken unter 1500 m und keine Kumulonimbus oder Gewitterwolken
Übergehend zu
vom 15 um 15 UTC bis 15 um 17 UTC
Sichtweite 10 km oder mehr
Aufgelockert bewölkt in der Höhe von 10000 ft

TAF: LSGS 151425Z 1515/1524 24005KT CAVOK BECMG 1515/1517 9999 SCT100

Wetterbeobachtungen und Prognosen von mehr als 4000 Flughäfen (METAR und TAF Bericht).

Die verfügbaren Stationen werden durch gelbe und rote Markierungen auf der Karte dargestellt.

Führen Sie die Maus auf sie, um den Namen der Station zu sehen.

Darauf klicken, um die Beobachtung von Wetterbeobachtungen und Prognosen zu sehen.

Um die Karte zu ändern : klicken Sie auf den grünen Tasten mit einem schwarzen Kreuz Zum Vergrößern, auf den grünen Button mit einem Gedankenstrich zu verkleinern, oder auf die grünen Pfeile für benachbarte Karten.


METAR-TAF: